KAST

Astoria Regional Airport

Astoria, Oregon, USA
METAR KAST 201245Z AUTO 00000KT 3SM BR BKN003 02/02 A3021 RMK AO2 VIS 1/2 RWY 08 T00170017
Observed Flight Rules
Oct-20 @ 12:45 UTC (6 minutes ago) Instrument Flight Rules
Visibility Clouds Conditions
3 miles
  • Broken at 300' AGL
  • Mist
Temperatures Readings
Current 2°C / 36°F
Dewpoint 2°C / 36°F
Humidity 100%
Altimeter 30.21" Hg
Pressure 1023 hPa
Elevation 3
METAR KAST 201245Z AUTO 00000KT 3SM BR BKN003 02/02 A3021 RMK AO2 VIS 1/2 RWY 08 T00170017
Observed Flight Rules
Oct-20 @ 12:45 UTC
(6 minutes ago)
LIFR
Clouds
  • Broken at 300' AGL
Conditions
  • Mist
Temperature Dewpoint
2°C / 36°F 2°C / 36°F
Humidity Altimeter Pressure
100% 30.21" Hg 1023 hPa